sensor_id;sensor_type;location;lat;lon;timestamp;P1;durP1;ratioP1;P2;durP2;ratioP2
4839;SDS011;2434;48.486;7.964;2023-05-06T00:02:21;3.60;;;2.20;;
4839;SDS011;2434;48.486;7.964;2023-05-06T00:04:51;2.73;;;2.20;;
4839;SDS011;2434;48.486;7.964;2023-05-06T00:07:20;2.83;;;1.80;;
4839;SDS011;2434;48.486;7.964;2023-05-06T00:09:48;7.63;;;2.70;;
4839;SDS011;2434;48.486;7.964;2023-05-06T00:12:16;3.07;;;2.10;;
4839;SDS011;2434;48.486;7.964;2023-05-06T00:14:44;3.30;;;2.00;;
4839;SDS011;2434;48.486;7.964;2023-05-06T00:17:12;2.13;;;1.93;;
4839;SDS011;2434;48.486;7.964;2023-05-06T00:19:42;2.87;;;2.17;;
4839;SDS011;2434;48.486;7.964;2023-05-06T00:22:10;2.13;;;1.93;;
4839;SDS011;2434;48.486;7.964;2023-05-06T00:24:39;3.30;;;2.20;;
4839;SDS011;2434;48.486;7.964;2023-05-06T00:27:07;3.40;;;2.40;;
4839;SDS011;2434;48.486;7.964;2023-05-06T00:29:36;4.73;;;2.60;;
4839;SDS011;2434;48.486;7.964;2023-05-06T00:32:04;2.90;;;2.43;;
4839;SDS011;2434;48.486;7.964;2023-05-06T00:34:33;3.67;;;2.20;;
4839;SDS011;2434;48.486;7.964;2023-05-06T00:37:02;4.00;;;2.30;;
4839;SDS011;2434;48.486;7.964;2023-05-06T00:39:30;8.13;;;2.43;;
4839;SDS011;2434;48.486;7.964;2023-05-06T00:41:58;2.10;;;1.90;;
4839;SDS011;2434;48.486;7.964;2023-05-06T00:44:28;3.50;;;2.00;;
4839;SDS011;2434;48.486;7.964;2023-05-06T00:46:57;4.10;;;2.03;;
4839;SDS011;2434;48.486;7.964;2023-05-06T00:49:27;2.73;;;1.73;;
4839;SDS011;2434;48.486;7.964;2023-05-06T00:51:56;4.73;;;2.37;;
4839;SDS011;2434;48.486;7.964;2023-05-06T00:54:26;4.00;;;2.13;;
4839;SDS011;2434;48.486;7.964;2023-05-06T00:56:55;5.93;;;1.77;;
4839;SDS011;2434;48.486;7.964;2023-05-06T00:59:23;5.13;;;1.87;;
4839;SDS011;2434;48.486;7.964;2023-05-06T01:01:51;2.13;;;1.60;;
4839;SDS011;2434;48.486;7.964;2023-05-06T01:04:20;4.43;;;2.00;;
4839;SDS011;2434;48.486;7.964;2023-05-06T01:06:53;5.20;;;2.13;;
4839;SDS011;2434;48.486;7.964;2023-05-06T01:09:33;6.33;;;2.30;;
4839;SDS011;2434;48.486;7.964;2023-05-06T01:12:08;3.63;;;1.80;;
4839;SDS011;2434;48.486;7.964;2023-05-06T01:14:45;1.50;;;1.40;;
4839;SDS011;2434;48.486;7.964;2023-05-06T01:17:26;2.00;;;1.73;;
4839;SDS011;2434;48.486;7.964;2023-05-06T01:19:57;2.67;;;2.00;;
4839;SDS011;2434;48.486;7.964;2023-05-06T01:22:27;2.57;;;1.50;;
4839;SDS011;2434;48.486;7.964;2023-05-06T01:25:00;5.33;;;2.00;;
4839;SDS011;2434;48.486;7.964;2023-05-06T01:27:28;2.23;;;1.80;;
4839;SDS011;2434;48.486;7.964;2023-05-06T01:29:56;7.23;;;2.70;;
4839;SDS011;2434;48.486;7.964;2023-05-06T01:32:37;10.00;;;2.40;;
4839;SDS011;2434;48.486;7.964;2023-05-06T01:35:14;8.80;;;2.43;;
4839;SDS011;2434;48.486;7.964;2023-05-06T01:37:49;4.77;;;2.20;;
4839;SDS011;2434;48.486;7.964;2023-05-06T01:40:36;2.20;;;1.90;;
4839;SDS011;2434;48.486;7.964;2023-05-06T01:43:08;3.03;;;2.10;;
4839;SDS011;2434;48.486;7.964;2023-05-06T01:45:40;4.00;;;1.70;;
4839;SDS011;2434;48.486;7.964;2023-05-06T01:48:14;3.20;;;2.07;;
4839;SDS011;2434;48.486;7.964;2023-05-06T01:50:43;3.73;;;2.10;;
4839;SDS011;2434;48.486;7.964;2023-05-06T01:53:11;5.30;;;2.07;;
4839;SDS011;2434;48.486;7.964;2023-05-06T01:55:41;4.30;;;1.77;;
4839;SDS011;2434;48.486;7.964;2023-05-06T01:58:09;2.70;;;1.87;;
4839;SDS011;2434;48.486;7.964;2023-05-06T02:00:39;3.70;;;1.70;;
4839;SDS011;2434;48.486;7.964;2023-05-06T02:03:08;2.83;;;1.70;;
4839;SDS011;2434;48.486;7.964;2023-05-06T02:05:36;2.80;;;1.70;;
4839;SDS011;2434;48.486;7.964;2023-05-06T02:08:05;4.00;;;1.87;;
4839;SDS011;2434;48.486;7.964;2023-05-06T02:10:33;3.60;;;1.70;;
4839;SDS011;2434;48.486;7.964;2023-05-06T02:13:07;2.30;;;1.97;;
4839;SDS011;2434;48.486;7.964;2023-05-06T02:15:36;3.13;;;1.80;;
4839;SDS011;2434;48.486;7.964;2023-05-06T02:18:10;3.07;;;1.60;;
4839;SDS011;2434;48.486;7.964;2023-05-06T02:20:38;2.47;;;2.10;;
4839;SDS011;2434;48.486;7.964;2023-05-06T02:23:13;9.10;;;2.10;;
4839;SDS011;2434;48.486;7.964;2023-05-06T02:25:41;4.53;;;1.73;;
4839;SDS011;2434;48.486;7.964;2023-05-06T02:28:12;4.97;;;2.27;;
4839;SDS011;2434;48.486;7.964;2023-05-06T02:30:41;3.00;;;1.53;;
4839;SDS011;2434;48.486;7.964;2023-05-06T02:33:09;2.77;;;2.37;;
4839;SDS011;2434;48.486;7.964;2023-05-06T02:35:38;2.40;;;1.90;;
4839;SDS011;2434;48.486;7.964;2023-05-06T02:38:06;4.67;;;2.00;;
4839;SDS011;2434;48.486;7.964;2023-05-06T02:40:34;2.63;;;2.17;;
4839;SDS011;2434;48.486;7.964;2023-05-06T02:43:02;3.93;;;1.63;;
4839;SDS011;2434;48.486;7.964;2023-05-06T02:45:34;2.10;;;1.30;;
4839;SDS011;2434;48.486;7.964;2023-05-06T02:48:02;2.70;;;1.77;;
4839;SDS011;2434;48.486;7.964;2023-05-06T02:50:33;2.97;;;2.03;;
4839;SDS011;2434;48.486;7.964;2023-05-06T02:53:01;4.77;;;1.90;;
4839;SDS011;2434;48.486;7.964;2023-05-06T02:55:29;7.73;;;2.40;;
4839;SDS011;2434;48.486;7.964;2023-05-06T02:57:57;3.10;;;1.80;;
4839;SDS011;2434;48.486;7.964;2023-05-06T03:00:25;4.70;;;1.40;;
4839;SDS011;2434;48.486;7.964;2023-05-06T03:02:55;3.00;;;1.83;;
4839;SDS011;2434;48.486;7.964;2023-05-06T03:05:23;3.13;;;2.10;;
4839;SDS011;2434;48.486;7.964;2023-05-06T03:07:51;4.23;;;2.30;;
4839;SDS011;2434;48.486;7.964;2023-05-06T03:10:20;5.03;;;1.70;;
4839;SDS011;2434;48.486;7.964;2023-05-06T03:12:48;3.27;;;2.10;;
4839;SDS011;2434;48.486;7.964;2023-05-06T03:15:17;2.33;;;1.40;;
4839;SDS011;2434;48.486;7.964;2023-05-06T03:17:45;2.67;;;1.90;;
4839;SDS011;2434;48.486;7.964;2023-05-06T03:20:15;3.97;;;1.90;;
4839;SDS011;2434;48.486;7.964;2023-05-06T03:22:49;2.27;;;1.87;;
4839;SDS011;2434;48.486;7.964;2023-05-06T03:25:18;2.43;;;1.67;;
4839;SDS011;2434;48.486;7.964;2023-05-06T03:27:47;1.53;;;1.30;;
4839;SDS011;2434;48.486;7.964;2023-05-06T03:30:19;4.53;;;1.70;;
4839;SDS011;2434;48.486;7.964;2023-05-06T03:32:50;2.53;;;1.90;;
4839;SDS011;2434;48.486;7.964;2023-05-06T03:35:26;2.60;;;1.60;;
4839;SDS011;2434;48.486;7.964;2023-05-06T03:37:57;4.43;;;1.70;;
4839;SDS011;2434;48.486;7.964;2023-05-06T03:40:30;3.53;;;1.60;;
4839;SDS011;2434;48.486;7.964;2023-05-06T03:42:59;4.23;;;2.23;;
4839;SDS011;2434;48.486;7.964;2023-05-06T03:45:27;4.07;;;2.07;;
4839;SDS011;2434;48.486;7.964;2023-05-06T03:47:58;3.00;;;2.03;;
4839;SDS011;2434;48.486;7.964;2023-05-06T03:50:31;5.03;;;1.87;;
4839;SDS011;2434;48.486;7.964;2023-05-06T03:52:59;2.67;;;1.93;;
4839;SDS011;2434;48.486;7.964;2023-05-06T03:55:29;4.63;;;2.40;;
4839;SDS011;2434;48.486;7.964;2023-05-06T03:57:59;3.73;;;2.00;;
4839;SDS011;2434;48.486;7.964;2023-05-06T04:00:27;3.20;;;1.90;;
4839;SDS011;2434;48.486;7.964;2023-05-06T04:02:55;4.00;;;1.80;;
4839;SDS011;2434;48.486;7.964;2023-05-06T04:05:32;2.80;;;2.07;;
4839;SDS011;2434;48.486;7.964;2023-05-06T04:08:00;4.70;;;2.10;;
4839;SDS011;2434;48.486;7.964;2023-05-06T04:10:28;4.00;;;2.17;;
4839;SDS011;2434;48.486;7.964;2023-05-06T04:13:03;2.43;;;1.60;;
4839;SDS011;2434;48.486;7.964;2023-05-06T04:15:38;2.50;;;1.93;;
4839;SDS011;2434;48.486;7.964;2023-05-06T04:18:10;5.10;;;1.93;;
4839;SDS011;2434;48.486;7.964;2023-05-06T04:20:52;2.43;;;1.90;;
4839;SDS011;2434;48.486;7.964;2023-05-06T04:23:20;3.33;;;2.03;;
4839;SDS011;2434;48.486;7.964;2023-05-06T04:25:48;3.83;;;2.37;;
4839;SDS011;2434;48.486;7.964;2023-05-06T04:28:19;2.37;;;1.70;;
4839;SDS011;2434;48.486;7.964;2023-05-06T04:30:49;3.40;;;1.80;;
4839;SDS011;2434;48.486;7.964;2023-05-06T04:33:21;6.53;;;2.53;;
4839;SDS011;2434;48.486;7.964;2023-05-06T04:35:54;7.80;;;2.70;;
4839;SDS011;2434;48.486;7.964;2023-05-06T04:38:24;5.87;;;2.40;;
4839;SDS011;2434;48.486;7.964;2023-05-06T04:40:55;2.53;;;2.20;;
4839;SDS011;2434;48.486;7.964;2023-05-06T04:43:24;2.63;;;1.57;;
4839;SDS011;2434;48.486;7.964;2023-05-06T04:46:01;3.23;;;2.40;;
4839;SDS011;2434;48.486;7.964;2023-05-06T04:48:32;4.57;;;2.00;;
4839;SDS011;2434;48.486;7.964;2023-05-06T04:51:02;2.90;;;2.10;;
4839;SDS011;2434;48.486;7.964;2023-05-06T04:53:32;4.00;;;2.20;;
4839;SDS011;2434;48.486;7.964;2023-05-06T04:56:01;4.90;;;2.53;;
4839;SDS011;2434;48.486;7.964;2023-05-06T04:58:30;5.43;;;2.33;;
4839;SDS011;2434;48.486;7.964;2023-05-06T05:01:00;3.90;;;2.30;;
4839;SDS011;2434;48.486;7.964;2023-05-06T05:03:30;5.50;;;2.40;;
4839;SDS011;2434;48.486;7.964;2023-05-06T05:06:02;6.47;;;3.00;;
4839;SDS011;2434;48.486;7.964;2023-05-06T05:08:30;6.60;;;2.50;;
4839;SDS011;2434;48.486;7.964;2023-05-06T05:11:00;3.13;;;2.50;;
4839;SDS011;2434;48.486;7.964;2023-05-06T05:13:29;3.10;;;2.43;;
4839;SDS011;2434;48.486;7.964;2023-05-06T05:15:57;5.23;;;2.73;;
4839;SDS011;2434;48.486;7.964;2023-05-06T05:18:29;6.47;;;2.77;;
4839;SDS011;2434;48.486;7.964;2023-05-06T05:21:04;3.93;;;3.13;;
4839;SDS011;2434;48.486;7.964;2023-05-06T05:23:34;4.77;;;3.53;;
4839;SDS011;2434;48.486;7.964;2023-05-06T05:26:02;4.37;;;3.87;;
4839;SDS011;2434;48.486;7.964;2023-05-06T05:28:31;5.30;;;3.50;;
4839;SDS011;2434;48.486;7.964;2023-05-06T05:31:01;4.60;;;3.87;;
4839;SDS011;2434;48.486;7.964;2023-05-06T05:33:33;4.27;;;3.37;;
4839;SDS011;2434;48.486;7.964;2023-05-06T05:36:06;10.00;;;4.27;;
4839;SDS011;2434;48.486;7.964;2023-05-06T05:38:35;4.70;;;3.73;;
4839;SDS011;2434;48.486;7.964;2023-05-06T05:41:03;6.73;;;3.40;;
4839;SDS011;2434;48.486;7.964;2023-05-06T05:43:32;5.40;;;3.67;;
4839;SDS011;2434;48.486;7.964;2023-05-06T05:46:00;5.33;;;3.80;;
4839;SDS011;2434;48.486;7.964;2023-05-06T05:48:31;6.13;;;3.50;;
4839;SDS011;2434;48.486;7.964;2023-05-06T05:51:01;6.00;;;3.93;;
4839;SDS011;2434;48.486;7.964;2023-05-06T05:53:31;4.50;;;3.30;;
4839;SDS011;2434;48.486;7.964;2023-05-06T05:55:59;4.87;;;4.27;;
4839;SDS011;2434;48.486;7.964;2023-05-06T05:58:27;13.43;;;4.50;;
4839;SDS011;2434;48.486;7.964;2023-05-06T06:00:58;16.30;;;7.00;;
4839;SDS011;2434;48.486;7.964;2023-05-06T06:03:28;12.43;;;4.30;;
4839;SDS011;2434;48.486;7.964;2023-05-06T06:05:56;7.33;;;4.33;;
4839;SDS011;2434;48.486;7.964;2023-05-06T06:08:26;11.73;;;4.00;;
4839;SDS011;2434;48.486;7.964;2023-05-06T06:10:58;7.10;;;4.33;;
4839;SDS011;2434;48.486;7.964;2023-05-06T06:13:33;6.63;;;4.17;;
4839;SDS011;2434;48.486;7.964;2023-05-06T06:16:01;11.43;;;5.10;;
4839;SDS011;2434;48.486;7.964;2023-05-06T06:18:31;7.20;;;4.80;;
4839;SDS011;2434;48.486;7.964;2023-05-06T06:21:00;8.10;;;5.37;;
4839;SDS011;2434;48.486;7.964;2023-05-06T06:23:28;15.10;;;7.30;;
4839;SDS011;2434;48.486;7.964;2023-05-06T06:25:57;21.70;;;11.13;;
4839;SDS011;2434;48.486;7.964;2023-05-06T06:28:26;24.67;;;9.07;;
4839;SDS011;2434;48.486;7.964;2023-05-06T06:30:55;11.63;;;7.80;;
4839;SDS011;2434;48.486;7.964;2023-05-06T06:33:23;12.53;;;9.27;;
4839;SDS011;2434;48.486;7.964;2023-05-06T06:35:51;10.60;;;7.70;;
4839;SDS011;2434;48.486;7.964;2023-05-06T06:38:20;11.50;;;6.73;;
4839;SDS011;2434;48.486;7.964;2023-05-06T06:40:48;12.00;;;6.90;;
4839;SDS011;2434;48.486;7.964;2023-05-06T06:43:18;9.13;;;6.00;;
4839;SDS011;2434;48.486;7.964;2023-05-06T06:45:55;8.70;;;5.67;;
4839;SDS011;2434;48.486;7.964;2023-05-06T06:48:23;8.30;;;5.97;;
4839;SDS011;2434;48.486;7.964;2023-05-06T06:50:51;10.50;;;6.67;;
4839;SDS011;2434;48.486;7.964;2023-05-06T06:53:19;7.40;;;5.50;;
4839;SDS011;2434;48.486;7.964;2023-05-06T06:55:47;7.80;;;5.93;;
4839;SDS011;2434;48.486;7.964;2023-05-06T06:58:15;9.23;;;6.57;;
4839;SDS011;2434;48.486;7.964;2023-05-06T07:00:45;7.37;;;5.83;;
4839;SDS011;2434;48.486;7.964;2023-05-06T07:03:13;9.80;;;7.77;;
4839;SDS011;2434;48.486;7.964;2023-05-06T07:05:44;10.20;;;7.57;;
4839;SDS011;2434;48.486;7.964;2023-05-06T07:08:13;8.80;;;6.87;;
4839;SDS011;2434;48.486;7.964;2023-05-06T07:10:42;7.77;;;6.67;;
4839;SDS011;2434;48.486;7.964;2023-05-06T07:13:11;7.23;;;6.53;;
4839;SDS011;2434;48.486;7.964;2023-05-06T07:15:40;9.57;;;6.33;;
4839;SDS011;2434;48.486;7.964;2023-05-06T07:18:09;8.63;;;7.23;;
4839;SDS011;2434;48.486;7.964;2023-05-06T07:20:37;11.90;;;6.63;;
4839;SDS011;2434;48.486;7.964;2023-05-06T07:23:05;10.10;;;6.30;;
4839;SDS011;2434;48.486;7.964;2023-05-06T07:25:33;9.20;;;7.23;;
4839;SDS011;2434;48.486;7.964;2023-05-06T07:28:02;10.13;;;7.40;;
4839;SDS011;2434;48.486;7.964;2023-05-06T07:30:30;9.83;;;8.80;;
4839;SDS011;2434;48.486;7.964;2023-05-06T07:33:00;12.17;;;8.23;;
4839;SDS011;2434;48.486;7.964;2023-05-06T07:35:28;10.90;;;8.70;;
4839;SDS011;2434;48.486;7.964;2023-05-06T07:37:56;11.47;;;10.17;;
4839;SDS011;2434;48.486;7.964;2023-05-06T07:40:25;10.40;;;9.23;;
4839;SDS011;2434;48.486;7.964;2023-05-06T07:42:53;11.63;;;10.37;;
4839;SDS011;2434;48.486;7.964;2023-05-06T07:45:21;11.00;;;9.67;;
4839;SDS011;2434;48.486;7.964;2023-05-06T07:47:50;11.37;;;9.60;;
4839;SDS011;2434;48.486;7.964;2023-05-06T07:50:20;12.30;;;8.47;;
4839;SDS011;2434;48.486;7.964;2023-05-06T07:52:49;12.73;;;9.27;;
4839;SDS011;2434;48.486;7.964;2023-05-06T07:55:17;10.27;;;8.40;;
4839;SDS011;2434;48.486;7.964;2023-05-06T07:57:46;15.40;;;8.43;;
4839;SDS011;2434;48.486;7.964;2023-05-06T08:00:14;11.70;;;8.30;;
4839;SDS011;2434;48.486;7.964;2023-05-06T08:02:43;10.77;;;9.60;;
4839;SDS011;2434;48.486;7.964;2023-05-06T08:05:13;10.63;;;8.50;;
4839;SDS011;2434;48.486;7.964;2023-05-06T08:07:44;9.40;;;8.40;;
4839;SDS011;2434;48.486;7.964;2023-05-06T08:10:13;9.67;;;8.67;;
4839;SDS011;2434;48.486;7.964;2023-05-06T08:12:41;9.43;;;7.97;;
4839;SDS011;2434;48.486;7.964;2023-05-06T08:15:10;10.77;;;9.77;;
4839;SDS011;2434;48.486;7.964;2023-05-06T08:17:39;9.40;;;8.50;;
4839;SDS011;2434;48.486;7.964;2023-05-06T08:20:07;14.83;;;10.67;;
4839;SDS011;2434;48.486;7.964;2023-05-06T08:22:36;9.80;;;8.60;;
4839;SDS011;2434;48.486;7.964;2023-05-06T08:25:06;11.10;;;9.00;;
4839;SDS011;2434;48.486;7.964;2023-05-06T08:27:36;14.30;;;10.50;;
4839;SDS011;2434;48.486;7.964;2023-05-06T08:30:05;11.27;;;9.13;;
4839;SDS011;2434;48.486;7.964;2023-05-06T08:32:34;14.63;;;10.67;;
4839;SDS011;2434;48.486;7.964;2023-05-06T08:35:03;11.17;;;10.03;;
4839;SDS011;2434;48.486;7.964;2023-05-06T08:37:31;9.87;;;8.87;;
4839;SDS011;2434;48.486;7.964;2023-05-06T08:40:00;9.57;;;7.70;;
4839;SDS011;2434;48.486;7.964;2023-05-06T08:42:29;9.67;;;8.50;;
4839;SDS011;2434;48.486;7.964;2023-05-06T08:44:59;12.73;;;6.77;;
4839;SDS011;2434;48.486;7.964;2023-05-06T08:47:27;8.63;;;6.10;;
4839;SDS011;2434;48.486;7.964;2023-05-06T08:49:56;10.67;;;6.40;;
4839;SDS011;2434;48.486;7.964;2023-05-06T08:52:24;7.83;;;7.00;;
4839;SDS011;2434;48.486;7.964;2023-05-06T08:54:53;7.90;;;7.20;;
4839;SDS011;2434;48.486;7.964;2023-05-06T08:57:27;15.63;;;6.30;;
4839;SDS011;2434;48.486;7.964;2023-05-06T08:59:58;11.83;;;5.57;;
4839;SDS011;2434;48.486;7.964;2023-05-06T09:02:26;4.37;;;3.60;;
4839;SDS011;2434;48.486;7.964;2023-05-06T09:04:55;8.90;;;4.33;;
4839;SDS011;2434;48.486;7.964;2023-05-06T09:07:23;3.40;;;2.87;;
4839;SDS011;2434;48.486;7.964;2023-05-06T09:09:52;4.40;;;3.93;;
4839;SDS011;2434;48.486;7.964;2023-05-06T09:12:20;6.50;;;5.00;;
4839;SDS011;2434;48.486;7.964;2023-05-06T09:14:51;6.00;;;4.40;;
4839;SDS011;2434;48.486;7.964;2023-05-06T09:17:21;4.40;;;4.00;;
4839;SDS011;2434;48.486;7.964;2023-05-06T09:19:52;4.30;;;3.30;;
4839;SDS011;2434;48.486;7.964;2023-05-06T09:22:25;8.93;;;3.77;;
4839;SDS011;2434;48.486;7.964;2023-05-06T09:24:54;7.50;;;3.03;;
4839;SDS011;2434;48.486;7.964;2023-05-06T09:27:24;3.43;;;2.90;;
4839;SDS011;2434;48.486;7.964;2023-05-06T09:30:01;2.57;;;2.20;;
4839;SDS011;2434;48.486;7.964;2023-05-06T09:32:32;3.73;;;2.27;;
4839;SDS011;2434;48.486;7.964;2023-05-06T09:35:05;3.20;;;2.67;;
4839;SDS011;2434;48.486;7.964;2023-05-06T09:37:35;7.03;;;3.13;;
4839;SDS011;2434;48.486;7.964;2023-05-06T09:40:03;3.33;;;2.30;;
4839;SDS011;2434;48.486;7.964;2023-05-06T09:42:32;3.30;;;2.30;;
4839;SDS011;2434;48.486;7.964;2023-05-06T09:45:05;4.47;;;3.00;;
4839;SDS011;2434;48.486;7.964;2023-05-06T09:47:36;6.07;;;3.17;;
4839;SDS011;2434;48.486;7.964;2023-05-06T09:50:05;8.90;;;3.07;;
4839;SDS011;2434;48.486;7.964;2023-05-06T09:52:35;7.63;;;3.43;;
4839;SDS011;2434;48.486;7.964;2023-05-06T09:55:04;6.03;;;3.03;;
4839;SDS011;2434;48.486;7.964;2023-05-06T09:57:34;3.33;;;2.40;;
4839;SDS011;2434;48.486;7.964;2023-05-06T10:00:06;5.60;;;2.03;;
4839;SDS011;2434;48.486;7.964;2023-05-06T10:02:40;3.00;;;2.33;;
4839;SDS011;2434;48.486;7.964;2023-05-06T10:05:10;4.20;;;2.90;;
4839;SDS011;2434;48.486;7.964;2023-05-06T10:07:40;6.87;;;3.00;;
4839;SDS011;2434;48.486;7.964;2023-05-06T10:10:09;10.10;;;2.67;;
4839;SDS011;2434;48.486;7.964;2023-05-06T10:12:39;5.63;;;2.90;;
4839;SDS011;2434;48.486;7.964;2023-05-06T10:15:10;5.93;;;2.73;;
4839;SDS011;2434;48.486;7.964;2023-05-06T10:17:39;6.40;;;3.53;;
4839;SDS011;2434;48.486;7.964;2023-05-06T10:20:12;3.70;;;2.90;;
4839;SDS011;2434;48.486;7.964;2023-05-06T10:22:45;4.53;;;2.80;;
4839;SDS011;2434;48.486;7.964;2023-05-06T10:25:22;4.07;;;2.50;;
4839;SDS011;2434;48.486;7.964;2023-05-06T10:27:56;5.77;;;3.20;;
4839;SDS011;2434;48.486;7.964;2023-05-06T10:30:27;4.03;;;2.63;;
4839;SDS011;2434;48.486;7.964;2023-05-06T10:33:02;3.53;;;2.33;;
4839;SDS011;2434;48.486;7.964;2023-05-06T10:35:34;5.67;;;2.70;;
4839;SDS011;2434;48.486;7.964;2023-05-06T10:38:11;3.60;;;2.30;;
4839;SDS011;2434;48.486;7.964;2023-05-06T10:40:43;3.90;;;2.23;;
4839;SDS011;2434;48.486;7.964;2023-05-06T10:43:19;7.63;;;2.97;;
4839;SDS011;2434;48.486;7.964;2023-05-06T10:46:00;4.03;;;1.90;;
4839;SDS011;2434;48.486;7.964;2023-05-06T10:48:31;3.10;;;2.27;;
4839;SDS011;2434;48.486;7.964;2023-05-06T10:51:19;3.50;;;2.10;;
4839;SDS011;2434;48.486;7.964;2023-05-06T10:53:56;4.83;;;2.37;;
4839;SDS011;2434;48.486;7.964;2023-05-06T10:56:28;5.90;;;2.03;;
4839;SDS011;2434;48.486;7.964;2023-05-06T10:59:00;3.80;;;2.40;;
4839;SDS011;2434;48.486;7.964;2023-05-06T11:01:36;4.30;;;2.13;;
4839;SDS011;2434;48.486;7.964;2023-05-06T11:04:06;5.90;;;3.03;;
4839;SDS011;2434;48.486;7.964;2023-05-06T11:06:37;5.17;;;2.10;;
4839;SDS011;2434;48.486;7.964;2023-05-06T11:09:14;3.03;;;1.93;;
4839;SDS011;2434;48.486;7.964;2023-05-06T11:14:35;4.00;;;2.40;;
4839;SDS011;2434;48.486;7.964;2023-05-06T11:17:06;4.80;;;2.37;;
4839;SDS011;2434;48.486;7.964;2023-05-06T11:19:36;7.83;;;2.53;;
4839;SDS011;2434;48.486;7.964;2023-05-06T11:22:05;4.90;;;2.30;;
4839;SDS011;2434;48.486;7.964;2023-05-06T11:24:37;4.47;;;2.30;;
4839;SDS011;2434;48.486;7.964;2023-05-06T11:27:06;4.33;;;1.67;;
4839;SDS011;2434;48.486;7.964;2023-05-06T11:29:36;4.97;;;2.67;;
4839;SDS011;2434;48.486;7.964;2023-05-06T11:32:06;4.33;;;2.10;;
4839;SDS011;2434;48.486;7.964;2023-05-06T11:34:48;5.23;;;2.70;;
4839;SDS011;2434;48.486;7.964;2023-05-06T11:37:23;5.43;;;2.10;;
4839;SDS011;2434;48.486;7.964;2023-05-06T11:39:51;7.27;;;2.40;;
4839;SDS011;2434;48.486;7.964;2023-05-06T11:42:23;6.17;;;2.63;;
4839;SDS011;2434;48.486;7.964;2023-05-06T11:44:52;4.00;;;2.10;;
4839;SDS011;2434;48.486;7.964;2023-05-06T11:47:23;2.90;;;1.90;;
4839;SDS011;2434;48.486;7.964;2023-05-06T11:49:52;3.03;;;2.00;;
4839;SDS011;2434;48.486;7.964;2023-05-06T11:52:21;4.53;;;2.67;;
4839;SDS011;2434;48.486;7.964;2023-05-06T11:54:50;5.70;;;2.10;;
4839;SDS011;2434;48.486;7.964;2023-05-06T11:57:19;2.37;;;1.80;;
4839;SDS011;2434;48.486;7.964;2023-05-06T11:59:52;3.80;;;2.40;;
4839;SDS011;2434;48.486;7.964;2023-05-06T12:02:20;4.13;;;2.60;;
4839;SDS011;2434;48.486;7.964;2023-05-06T12:04:50;5.83;;;1.80;;
4839;SDS011;2434;48.486;7.964;2023-05-06T12:07:19;3.30;;;1.83;;
4839;SDS011;2434;48.486;7.964;2023-05-06T12:09:48;2.70;;;1.77;;
4839;SDS011;2434;48.486;7.964;2023-05-06T12:12:18;2.70;;;1.67;;
4839;SDS011;2434;48.486;7.964;2023-05-06T12:14:48;3.10;;;2.00;;
4839;SDS011;2434;48.486;7.964;2023-05-06T12:17:18;3.40;;;2.17;;
4839;SDS011;2434;48.486;7.964;2023-05-06T12:19:48;4.67;;;2.30;;
4839;SDS011;2434;48.486;7.964;2023-05-06T12:22:17;2.60;;;2.30;;
4839;SDS011;2434;48.486;7.964;2023-05-06T12:24:46;3.80;;;2.23;;
4839;SDS011;2434;48.486;7.964;2023-05-06T12:29:59;6.43;;;2.30;;
4839;SDS011;2434;48.486;7.964;2023-05-06T12:32:29;6.50;;;2.50;;
4839;SDS011;2434;48.486;7.964;2023-05-06T12:34:59;4.13;;;2.43;;
4839;SDS011;2434;48.486;7.964;2023-05-06T12:37:31;3.67;;;2.40;;
4839;SDS011;2434;48.486;7.964;2023-05-06T12:39:59;10.57;;;2.23;;
4839;SDS011;2434;48.486;7.964;2023-05-06T12:42:28;2.30;;;2.00;;
4839;SDS011;2434;48.486;7.964;2023-05-06T12:44:56;5.80;;;2.20;;
4839;SDS011;2434;48.486;7.964;2023-05-06T12:47:24;6.50;;;1.80;;
4839;SDS011;2434;48.486;7.964;2023-05-06T12:49:53;3.10;;;2.07;;
4839;SDS011;2434;48.486;7.964;2023-05-06T12:52:25;2.93;;;1.80;;
4839;SDS011;2434;48.486;7.964;2023-05-06T12:54:55;3.50;;;1.73;;
4839;SDS011;2434;48.486;7.964;2023-05-06T12:57:23;5.73;;;2.37;;
4839;SDS011;2434;48.486;7.964;2023-05-06T12:59:52;3.90;;;2.00;;
4839;SDS011;2434;48.486;7.964;2023-05-06T13:02:21;2.80;;;1.90;;
4839;SDS011;2434;48.486;7.964;2023-05-06T13:04:50;3.87;;;1.90;;
4839;SDS011;2434;48.486;7.964;2023-05-06T13:07:18;4.03;;;1.70;;
4839;SDS011;2434;48.486;7.964;2023-05-06T13:09:48;2.90;;;1.80;;
4839;SDS011;2434;48.486;7.964;2023-05-06T13:12:17;3.63;;;2.20;;
4839;SDS011;2434;48.486;7.964;2023-05-06T13:14:45;3.37;;;1.80;;
4839;SDS011;2434;48.486;7.964;2023-05-06T13:17:13;2.40;;;1.57;;
4839;SDS011;2434;48.486;7.964;2023-05-06T13:19:42;4.60;;;2.40;;
4839;SDS011;2434;48.486;7.964;2023-05-06T13:22:10;3.47;;;1.50;;
4839;SDS011;2434;48.486;7.964;2023-05-06T13:24:38;5.03;;;1.60;;
4839;SDS011;2434;48.486;7.964;2023-05-06T13:27:08;5.53;;;1.70;;
4839;SDS011;2434;48.486;7.964;2023-05-06T13:29:36;6.87;;;1.30;;
4839;SDS011;2434;48.486;7.964;2023-05-06T13:32:05;2.33;;;1.70;;
4839;SDS011;2434;48.486;7.964;2023-05-06T13:34:34;3.75;;;1.50;;
4839;SDS011;2434;48.486;7.964;2023-05-06T13:37:03;5.10;;;1.67;;
4839;SDS011;2434;48.486;7.964;2023-05-06T13:39:31;3.43;;;1.60;;
4839;SDS011;2434;48.486;7.964;2023-05-06T13:41:59;3.30;;;1.50;;
4839;SDS011;2434;48.486;7.964;2023-05-06T13:44:29;4.80;;;2.60;;
4839;SDS011;2434;48.486;7.964;2023-05-06T13:46:58;4.20;;;1.60;;
4839;SDS011;2434;48.486;7.964;2023-05-06T13:49:26;2.63;;;1.40;;
4839;SDS011;2434;48.486;7.964;2023-05-06T13:51:54;2.23;;;1.27;;
4839;SDS011;2434;48.486;7.964;2023-05-06T13:54:23;2.17;;;1.50;;
4839;SDS011;2434;48.486;7.964;2023-05-06T13:56:51;2.40;;;1.67;;
4839;SDS011;2434;48.486;7.964;2023-05-06T13:59:20;4.90;;;2.00;;
4839;SDS011;2434;48.486;7.964;2023-05-06T14:01:50;19.90;;;2.63;;
4839;SDS011;2434;48.486;7.964;2023-05-06T14:04:19;2.60;;;1.20;;
4839;SDS011;2434;48.486;7.964;2023-05-06T14:06:47;116.07;;;13.00;;
4839;SDS011;2434;48.486;7.964;2023-05-06T14:09:16;2.20;;;1.43;;
4839;SDS011;2434;48.486;7.964;2023-05-06T14:11:44;3.87;;;2.00;;
4839;SDS011;2434;48.486;7.964;2023-05-06T14:14:12;2.73;;;1.30;;
4839;SDS011;2434;48.486;7.964;2023-05-06T14:16:40;5.60;;;2.40;;
4839;SDS011;2434;48.486;7.964;2023-05-06T14:19:10;2.63;;;1.53;;
4839;SDS011;2434;48.486;7.964;2023-05-06T14:21:38;3.23;;;1.50;;
4839;SDS011;2434;48.486;7.964;2023-05-06T14:24:07;10.63;;;1.80;;
4839;SDS011;2434;48.486;7.964;2023-05-06T14:26:36;3.10;;;1.47;;
4839;SDS011;2434;48.486;7.964;2023-05-06T14:29:05;3.50;;;1.57;;
4839;SDS011;2434;48.486;7.964;2023-05-06T14:31:34;1.90;;;0.97;;
4839;SDS011;2434;48.486;7.964;2023-05-06T14:34:02;4.20;;;1.60;;
4839;SDS011;2434;48.486;7.964;2023-05-06T14:36:32;5.70;;;1.47;;
4839;SDS011;2434;48.486;7.964;2023-05-06T14:39:00;2.90;;;1.20;;
4839;SDS011;2434;48.486;7.964;2023-05-06T14:41:28;4.83;;;1.60;;
4839;SDS011;2434;48.486;7.964;2023-05-06T14:43:57;4.10;;;1.50;;
4839;SDS011;2434;48.486;7.964;2023-05-06T14:46:25;2.70;;;1.33;;
4839;SDS011;2434;48.486;7.964;2023-05-06T14:48:55;2.03;;;1.27;;
4839;SDS011;2434;48.486;7.964;2023-05-06T14:51:23;2.73;;;1.30;;
4839;SDS011;2434;48.486;7.964;2023-05-06T14:53:53;6.17;;;1.83;;
4839;SDS011;2434;48.486;7.964;2023-05-06T14:56:21;1.90;;;1.20;;
4839;SDS011;2434;48.486;7.964;2023-05-06T14:58:49;2.40;;;1.10;;
4839;SDS011;2434;48.486;7.964;2023-05-06T15:01:18;4.00;;;1.50;;
4839;SDS011;2434;48.486;7.964;2023-05-06T15:03:46;2.97;;;1.30;;
4839;SDS011;2434;48.486;7.964;2023-05-06T15:06:16;2.87;;;1.43;;
4839;SDS011;2434;48.486;7.964;2023-05-06T15:08:44;3.50;;;1.60;;
4839;SDS011;2434;48.486;7.964;2023-05-06T15:11:14;2.20;;;1.33;;
4839;SDS011;2434;48.486;7.964;2023-05-06T15:13:42;4.00;;;1.23;;
4839;SDS011;2434;48.486;7.964;2023-05-06T15:16:10;1.83;;;1.23;;
4839;SDS011;2434;48.486;7.964;2023-05-06T15:18:38;7.00;;;1.17;;
4839;SDS011;2434;48.486;7.964;2023-05-06T15:21:07;2.03;;;1.30;;
4839;SDS011;2434;48.486;7.964;2023-05-06T15:23:36;3.00;;;1.30;;
4839;SDS011;2434;48.486;7.964;2023-05-06T15:26:04;3.37;;;1.40;;
4839;SDS011;2434;48.486;7.964;2023-05-06T15:28:34;3.43;;;1.20;;
4839;SDS011;2434;48.486;7.964;2023-05-06T15:31:02;3.20;;;1.10;;
4839;SDS011;2434;48.486;7.964;2023-05-06T15:33:30;1.90;;;0.93;;
4839;SDS011;2434;48.486;7.964;2023-05-06T15:35:58;1.97;;;1.27;;